Flight Track Log - Related Links

Times and Time Zones

All times are in EDT time to prevent confusion due to time zone crossing. See the SKW6345 flight status page for this flight to view local times or setup timezone preferences in your user account.

Time Position Orientation Groundspeed Altitude Reporting Facility
EDT Latitude Longitude Course Direction KTS MPH feet Rate Location/Type
Sat 03:47:19 PM 45.7872 -111.2300 283° West 201 231 6,300  Level Salt Lake Center
Sat 03:48:21 PM 45.7386 -111.2997 225° Southwest 291 335 7,500 1,548 Climbing Salt Lake Center
Sat 03:49:23 PM 45.6958 -111.3922 237° Southwest 282 325 9,500 1,887 Climbing Salt Lake Center
Sat 03:50:00 PM 45.7681 -111.8724 290° West  Level FlightAware Approximate
Sat 03:50:25 PM 45.6686 -111.4950 249° West 289 333 11,400  Level Salt Lake Center
Sat 03:51:00 PM 45.8169 -112.0011 290° West  Level FlightAware Approximate
Sat 03:51:27 PM 45.7078 -111.6328 292° West 308 354 12,800  Level Salt Lake Center
Sat 03:52:00 PM 45.8461 -112.1429 283° West  Level FlightAware Approximate
Sat 03:52:29 PM 45.7439 -111.7489 294° West 317 365 14,600  Level Salt Lake Center
Sat 03:53:31 PM 45.7753 -111.8694 291° West 320 368 16,100 1,403 Climbing Salt Lake Center
Sat 03:54:33 PM 45.7456 -111.9914 251° West 328 377 17,500 1,210 Climbing Salt Lake Center
Sat 03:55:35 PM 45.6958 -112.1031 238° Southwest 332 382 18,600 1,065 Climbing Salt Lake Center
Sat 03:56:37 PM 45.6436 -112.2158 237° Southwest 337 388 19,700 1,161 Climbing Salt Lake Center
Sat 03:57:39 PM 45.5814 -112.3581 238° Southwest 351 404 21,000 1,113 Climbing Salt Lake Center
Sat 03:58:41 PM 45.5297 -112.4794 239° Southwest 357 411 22,000 871 Climbing Salt Lake Center
Sat 03:59:43 PM 45.4775 -112.6017 239° Southwest 360 414 22,800 823 Climbing Salt Lake Center
Sat 04:00:45 PM 45.4244 -112.7272 239° Southwest 369 425 23,700 871 Climbing Salt Lake Center
Sat 04:01:47 PM 45.3694 -112.8531 238° Southwest 373 429 24,600 864 Climbing Salt Lake Center
Sat 04:02:50 PM 45.3139 -112.9844 239° Southwest 374 430 25,500 823 Climbing Salt Lake Center
Sat 04:03:51 PM 45.2533 -113.1261 239° Southwest 378 435 26,300 683 Climbing Salt Lake Center
Sat 04:04:53 PM 45.1975 -113.2461 237° Southwest 380 437 26,900 581 Climbing Salt Lake Center
Sat 04:05:55 PM 45.1297 -113.3853 235° Southwest 384 442 27,500 532 Climbing Salt Lake Center
Sat 04:06:57 PM 45.0647 -113.5075 233° Southwest 391 450 28,000 532 Climbing Salt Lake Center
Sat 04:07:59 PM 44.9942 -113.6419 233° Southwest 395 455 28,600 532 Climbing Salt Lake Center
Sat 04:09:01 PM 44.9319 -113.7606 233° Southwest 394 453 29,100 484 Climbing Salt Lake Center
Sat 04:10:03 PM 44.8556 -113.9022 233° Southwest 404 465 29,600 484 Climbing Salt Lake Center
Sat 04:11:05 PM 44.7889 -114.0281 233° Southwest 402 463 30,100 484 Climbing Salt Lake Center
Sat 04:12:07 PM 44.7239 -114.1486 233° Southwest 405 466 30,600 532 Climbing Salt Lake Center
Sat 04:13:09 PM 44.6475 -114.2892 233° Southwest 405 466 31,200 532 Climbing Salt Lake Center
Sat 04:14:11 PM 44.5836 -114.4086 233° Southwest 402 463 31,700 387 Climbing Salt Lake Center
Sat 04:15:13 PM 44.5069 -114.5492 233° Southwest 404 465 32,000 145 Climbing Salt Lake Center
Sat 04:16:15 PM 44.4417 -114.6697 233° Southwest 405 466 32,000  Level Salt Lake Center
Sat 04:17:17 PM 44.3614 -114.8153 232° Southwest 417 480 32,000  Level Salt Lake Center
Sat 04:18:18 PM 44.2919 -114.9422 233° Southwest 426 490 32,000  Level Salt Lake Center
Sat 04:19:20 PM 44.2219 -115.0697 233° Southwest 429 494 32,000  Level Salt Lake Center
Sat 04:20:22 PM 44.1372 -115.2214 232° Southwest 437 503 32,000  Level Salt Lake Center
Sat 04:21:24 PM 44.0661 -115.3506 233° Southwest 435 501 32,000  Level Salt Lake Center
Sat 04:22:26 PM 43.9806 -115.5011 232° Southwest 442 509 32,000  Level Salt Lake Center
Sat 04:23:28 PM 43.9056 -115.6272 230° Southwest 440 506 32,000  Level Salt Lake Center
Sat 04:24:30 PM 43.8192 -115.7742 231° Southwest 439 505 32,000  Level Salt Lake Center
Sat 04:25:32 PM 43.7472 -115.9031 232° Southwest 438 504 32,000  Level Salt Lake Center
Sat 04:26:34 PM 43.6764 -116.0319 233° Southwest 438 504 32,000  Level Salt Lake Center
Sat 04:27:36 PM 43.5919 -116.1806 232° Southwest 439 505 32,000  Level Salt Lake Center
Sat 04:28:38 PM 43.5203 -116.3064 232° Southwest 435 501 32,000  Level Salt Lake Center
Sat 04:29:40 PM 43.4361 -116.4514 231° Southwest 431 496 32,000  Level Salt Lake Center
Sat 04:30:42 PM 43.3647 -116.5736 231° Southwest 428 493 32,000  Level Salt Lake Center
Sat 04:31:44 PM 43.2819 -116.7142 231° Southwest 422 486 32,000  Level Salt Lake Center
Sat 04:32:46 PM 43.2114 -116.8344 231° Southwest 422 486 32,000  Level Salt Lake Center
Sat 04:33:48 PM 43.1397 -116.9553 231° Southwest 425 489 32,000  Level Salt Lake Center
Sat 04:34:50 PM 43.0564 -117.0958 231° Southwest 425 489 32,000  Level Salt Lake Center
Sat 04:35:51 PM 42.9853 -117.2167 231° Southwest 426 490 32,000  Level Salt Lake Center
Sat 04:36:53 PM 42.9025 -117.3547 231° Southwest 423 487 32,000  Level Salt Lake Center
Sat 04:37:55 PM 42.8308 -117.4719 230° Southwest 418 481 32,000  Level Salt Lake Center
Sat 04:38:57 PM 42.7483 -117.6089 231° Southwest 419 482 32,000  Level Salt Lake Center
Sat 04:39:59 PM 42.6775 -117.7258 231° Southwest 418 481 32,000  Level Salt Lake Center
Sat 04:41:02 PM 42.5919 -117.8578 229° Southwest 416 479 32,000  Level Salt Lake Center
Sat 04:42:03 PM 42.4958 -117.9269 208° Southwest 414 476 32,000  Level Salt Lake Center
Sat 04:43:05 PM 42.3822 -117.9975 205° Southwest 403 464 32,000  Level Salt Lake Center
Sat 04:44:07 PM 42.2822 -118.0564 204° Southwest 408 470 32,000  Level Salt Lake Center
Sat 04:45:09 PM 42.1786 -118.1211 205° Southwest 405 466 32,000  Level Salt Lake Center
Sat 04:46:11 PM 42.0806 -118.1814 205° Southwest 405 466 32,000  Level Salt Lake Center
Sat 04:47:13 PM 41.9658 -118.2492 204° Southwest 403 464 32,000  Level Salt Lake Center
Sat 04:48:15 PM 41.8675 -118.3092 204° Southwest 404 465 32,000  Level Salt Lake Center
Sat 04:49:16 PM 41.7531 -118.3781 204° Southwest 405 466 32,000  Level Salt Lake Center
Sat 04:50:18 PM 41.6553 -118.4356 204° Southwest 402 463 32,000  Level Salt Lake Center
Sat 04:51:20 PM 41.5417 -118.5036 204° Southwest 401 461 32,000  Level Salt Lake Center
Sat 04:52:22 PM 41.4436 -118.5608 204° Southwest 402 463 32,000  Level Salt Lake Center
Sat 04:53:24 PM 41.3297 -118.6281 204° Southwest 401 461 32,000  Level Salt Lake Center
Sat 04:54:26 PM 41.2317 -118.6864 204° Southwest 403 464 32,000  Level Salt Lake Center
Sat 04:55:28 PM 41.1175 -118.7536 204° Southwest 402 463 32,000  Level Salt Lake Center
Sat 04:56:30 PM 41.0189 -118.8097 203° Southwest 403 464 32,000  Level Salt Lake Center
Sat 04:57:32 PM 40.9036 -118.8781 204° Southwest 405 466 32,000  Level Salt Lake Center
Sat 04:58:02 PM 40.8553 -118.9053 203° Southwest 409 471 32,000  Level Oakland Center
Sat 04:59:03 PM 40.7483 -118.9664 203° Southwest 407 468 32,000  Level Oakland Center
Sat 05:00:04 PM 40.6447 -119.0272 204° Southwest 408 470 32,000  Level Oakland Center
Sat 05:01:06 PM 40.5606 -119.1294 223° Southwest 418 481 32,000  Level Oakland Center
Sat 05:02:07 PM 40.4981 -119.2592 238° Southwest 421 484 32,000  Level Oakland Center
Sat 05:03:09 PM 40.4347 -119.3861 237° Southwest 419 482 32,000  Level Oakland Center
Sat 05:04:10 PM 40.3703 -119.5144 237° Southwest 422 486 32,000  Level Oakland Center
Sat 05:05:11 PM 40.3075 -119.6422 237° Southwest 420 483 32,000  Level Oakland Center
Sat 05:06:13 PM 40.2317 -119.7950 237° Southwest 417 480 32,000  Level Oakland Center
Sat 05:07:14 PM 40.1669 -119.9219 236° Southwest 420 483 32,000  Level Oakland Center
Sat 05:08:15 PM 40.1022 -120.0517 237° Southwest 426 490 32,000  Level Oakland Center
Sat 05:09:17 PM 40.0375 -120.1797 237° Southwest 423 487 32,000  Level Oakland Center
Sat 05:10:18 PM 39.9767 -120.3022 237° Southwest 426 490 32,000  Level Oakland Center
Sat 05:11:19 PM 39.9119 -120.4289 236° Southwest 423 487 32,000  Level Oakland Center
Sat 05:12:21 PM 39.8472 -120.5556 236° Southwest 422 486 32,000  Level Oakland Center
Sat 05:13:22 PM 39.7689 -120.7089 236° Southwest 427 491 32,000  Level Oakland Center
Sat 05:14:24 PM 39.6933 -120.8233 229° Southwest 418 481 32,000  Level Oakland Center
Sat 05:15:25 PM 39.6103 -120.9306 225° Southwest 421 484 32,000  Level Oakland Center
Sat 05:16:26 PM 39.5292 -121.0369 225° Southwest 418 481 32,000  Level Oakland Center
Sat 05:17:28 PM 39.4472 -121.1431 225° Southwest 417 480 32,000  Level Oakland Center
Sat 05:18:29 PM 39.3644 -121.2508 225° Southwest 422 486 32,000 -244 Level Oakland Center
Sat 05:19:31 PM 39.2819 -121.3575 225° Southwest 422 486 31,500 -1,220 Descending Oakland Center
Sat 05:20:32 PM 39.1997 -121.4636 225° Southwest 420 483 29,500 -2,146 Descending Oakland Center
Sat 05:21:34 PM 39.1036 -121.5861 225° Southwest 409 471 27,100 -1,548 Descending Oakland Center
Sat 05:22:36 PM 39.0258 -121.6856 225° Southwest 400 460 26,300 -878 Descending Oakland Center
Sat 05:23:37 PM 38.9475 -121.7844 224° Southwest 397 457 25,300 -976 Descending Oakland Center
Sat 05:24:39 PM 38.8689 -121.8842 225° Southwest 396 456 24,300 -976 Descending Oakland Center
Sat 05:25:40 PM 38.7906 -121.9825 224° Southwest 398 458 23,300 -976 Descending Oakland Center
Sat 05:26:42 PM 38.7136 -122.0794 225° Southwest 393 452 22,300 -1,122 Descending Oakland Center
Sat 05:27:43 PM 38.6286 -122.1844 224° Southwest 387 445 21,000 -1,220 Descending Oakland Center
Sat 05:28:45 PM 38.5550 -122.2808 226° Southwest 382 440 19,800 -1,161 Descending Oakland Center
Sat 05:29:47 PM 38.4817 -122.3708 224° Southwest 370 426 18,600 -1,122 Descending Oakland Center
Sat 05:30:48 PM 38.4092 -122.4606 224° Southwest 367 422 17,500 -1,268 Descending Oakland Center
Sat 05:31:50 PM 38.3267 -122.5647 225° Southwest 352 405 16,000 -1,317 Descending Oakland Center
Sat 05:32:51 PM 38.2567 -122.6500 224° Southwest 351 404 14,800 -1,171 Descending Oakland Center
Sat 05:33:53 PM 38.1889 -122.7331 224° Southwest 345 397 13,600 -1,113 Descending Oakland Center
Sat 05:34:55 PM 38.1214 -122.8156 224° Southwest 341 392 12,500 -1,122 Descending Oakland Center
Sat 05:35:56 PM 38.0314 -122.8131 179° South 346 398 11,300 -780 Descending Oakland Center
Sat 05:36:58 PM 37.9581 -122.7364 140° Southeast 346 398 10,900 -195 Descending Oakland Center
Sat 05:37:59 PM 37.8725 -122.6442 140° Southeast 348 400 10,900  Level Oakland Center
Sat 05:39:01 PM 37.8100 -122.5778 140° Southeast 304 350 10,900  Level Oakland Center
Sat 05:40:03 PM 37.7572 -122.5217 140° Southeast 262 302 10,900 44 Level Oakland Center
Sat 05:41:17 PM 37.6833 -122.4500 142° Southeast 260 299 11,000 45 Climbing Northern Cal TRACON
Sat 05:42:17 PM 37.6333 -122.3833 133° Southeast 253 291 11,000 -350 Level Northern Cal TRACON
Sat 05:43:17 PM 37.5667 -122.3333 149° Southeast 249 287 10,300 -1,050 Descending Northern Cal TRACON
Sat 05:44:17 PM 37.5167 -122.2833 142° Southeast 241 277 8,900 -1,400 Descending Northern Cal TRACON
Sat 05:45:17 PM 37.4667 -122.2333 142° Southeast 246 283 7,500 -1,474 Descending Northern Cal TRACON
Sat 05:46:11 PM 37.4500 -122.1667 107° East 244 281 6,100 -1,263 Descending Northern Cal TRACON
Sat 05:47:11 PM 37.5000 -122.1333 28° Northeast 227 261 5,100 -810 Descending Northern Cal TRACON
Sat 05:48:17 PM 37.5333 -122.1833 310° West 173 199 4,400 -857 Descending Northern Cal TRACON
Sat 05:49:17 PM 37.5667 -122.2333 310° West 160 184 3,300 -1,300 Descending Northern Cal TRACON
Sat 05:50:17 PM 37.5833 -122.2833 293° West 153 176 1,800 -1,200 Descending Northern Cal TRACON
Sat 05:51:17 PM 37.6000 -122.3167 302° West 131 151 900 -900 Descending Northern Cal TRACON

Login

Don't have an account? Register now (free) for customized features, flight alerts, and more!